Terminal Aerodrome Forecast
Issued by NWS

Home | Current Version | Previous Version | Text Only | Print | Product List | Glossary On
Versions: 1 2 3 4 5 6 7 8 9 10 11 12 13 14 15 16 17 18
000
FTUS46 KEKA 201145
TAFCEC
TAF
KCEC 201145Z 2012/2112 17020G30KT 3SM RA BR BKN015 OVC025
     FM201600 17025G35KT 3SM RA BR BKN012 OVC025
     FM202200 17015G25KT 3SM RA BR BKN015 OVC025
     FM210300 17011KT 5SM -RA BKN015 OVC025=

USA.gov is the U.S. government's official web portal to all federal, state and local government web resources and services.